»·PEaware :: N735WU KONT-KBUR

N735WU :: KONT-KBUR

FLIGHT INFORMATION

Flight Status: Arrived
Operator: Privately registered:
United States
More flights under this callsign
Pilot: Gary C. (3469)
Aircraft: CESSNA 172 SKYHAWK
(C172)
More flights by this aircraft type
Origin: KONT Ontario Intl
United States
Destination: KBUR Bob Hope-Burbank
United States
More flights between these airports :: More routes between these airports
Route: +PDZ V186 VNY
File this flight plan on PilotEdge
Remarks: Request gps app
Altitude:
(Current/Filed)
6,000ft
Speed:
(Current/Filed)
115kts
Departed: 19-Nov-20 06:06 PM
Arrived: 19-Nov-20 07:04 PM
Distance/Time
Traveled:
39nm/0:58
Distance/Time
To Go:
Arrived

Flight Plot

Page will automatically refresh every two minutes.


Map Options




Map Legend


Flown Route
Filed Route
Departure Airport
Arrival Airport
Navaid (VOR, NDB)
Fix

Horizontal Profiles

Position Reports

Time Latitude Longitude Heading Altitude Ground
Speed
19-Nov-20 17:35 34.052636 -117.600769 42 910ft 0kts
19-Nov-20 17:36 34.052636 -117.600769 42 910ft 0kts
19-Nov-20 17:37 34.052636 -117.600769 42 910ft 0kts
19-Nov-20 17:42 34.052634 -117.600769 42 910ft 0kts
19-Nov-20 17:43 34.052634 -117.600769 42 910ft 0kts
19-Nov-20 17:44 34.052634 -117.600769 42 910ft 0kts
19-Nov-20 17:45 34.052634 -117.600769 42 910ft 0kts
19-Nov-20 17:46 34.052634 -117.600769 42 910ft 0kts
19-Nov-20 17:47 34.052634 -117.600769 42 910ft 0kts
19-Nov-20 17:48 34.052634 -117.600769 42 910ft 0kts
19-Nov-20 17:49 34.052634 -117.600769 42 910ft 0kts
19-Nov-20 17:50 34.052634 -117.600769 42 910ft 0kts
19-Nov-20 17:51 34.052634 -117.600769 42 910ft 0kts
19-Nov-20 17:52 34.052634 -117.600769 42 910ft 0kts
19-Nov-20 17:53 34.052634 -117.600769 42 910ft 0kts
19-Nov-20 17:54 34.052634 -117.600769 42 910ft 0kts
19-Nov-20 17:55 34.052634 -117.600769 42 910ft 0kts
19-Nov-20 17:56 34.052634 -117.600769 42 910ft 0kts
19-Nov-20 17:57 34.052648 -117.600770 332 910ft 0kts
19-Nov-20 17:58 34.052827 -117.602313 354 913ft 5kts
19-Nov-20 17:59 34.053838 -117.600775 89 915ft 18kts
19-Nov-20 18:00 34.053843 -117.594519 90 915ft 27kts
19-Nov-20 18:01 34.053851 -117.587223 90 915ft 25kts
19-Nov-20 18:02 34.053836 -117.583326 93 916ft 0kts
19-Nov-20 18:03 34.053827 -117.583077 89 915ft 0kts
19-Nov-20 18:04 34.054132 -117.582563 14 917ft 10kts
19-Nov-20 18:05 34.055014 -117.591238 270 947ft 88kts
19-Nov-20 18:06 34.055267 -117.625662 272 1919ft 94kts
19-Nov-20 18:07 34.056372 -117.671048 274 2216ft 124kts
19-Nov-20 18:08 34.059944 -117.722289 273 2240ft 123kts
19-Nov-20 18:09 34.063156 -117.771293 271 2511ft 112kts
19-Nov-20 18:10 34.065431 -117.813994 274 3027ft 104kts
19-Nov-20 18:11 34.071135 -117.854847 288 3463ft 100kts
19-Nov-20 18:12 34.077434 -117.881579 276 3938ft 87kts
19-Nov-20 18:13 34.080026 -117.903012 280 4303ft 85kts
19-Nov-20 18:14 34.083662 -117.923429 278 4678ft 85kts
19-Nov-20 18:15 34.087214 -117.944137 284 5054ft 85kts
19-Nov-20 18:16 34.090900 -117.964874 279 5430ft 85kts
19-Nov-20 18:17 34.093913 -117.985902 275 5809ft 86kts
19-Nov-20 18:18 34.097360 -118.008883 283 5999ft 100kts
19-Nov-20 18:19 34.102180 -118.033843 283 5976ft 101kts
19-Nov-20 18:20 34.106608 -118.058897 277 6035ft 99kts
19-Nov-20 18:21 34.110659 -118.084028 283 6017ft 106kts
19-Nov-20 18:22 34.114773 -118.109987 283 6015ft 108kts
19-Nov-20 18:23 34.119587 -118.137004 284 6020ft 106kts
19-Nov-20 18:25 34.124493 -118.163708 288 6066ft 107kts
19-Nov-20 18:26 34.132831 -118.190103 291 6073ft 108kts
19-Nov-20 18:27 34.141682 -118.216763 290 6022ft 114kts
19-Nov-20 18:28 34.149559 -118.244112 296 6074ft 111kts
19-Nov-20 18:29 34.157784 -118.271106 287 6069ft 114kts
19-Nov-20 18:30 34.165725 -118.298426 289 6063ft 115kts
19-Nov-20 18:31 34.174836 -118.326194 291 6008ft 116kts
19-Nov-20 18:32 34.182191 -118.353780 279 6034ft 113kts
19-Nov-20 18:33 34.189784 -118.381122 291 6027ft 114kts
19-Nov-20 18:34 34.198078 -118.408293 287 6030ft 113kts
19-Nov-20 18:35 34.205863 -118.435752 289 6014ft 114kts
19-Nov-20 18:36 34.214286 -118.462151 292 6008ft 114kts
19-Nov-20 18:37 34.223193 -118.488574 300 6022ft 113kts
19-Nov-20 18:38 34.238510 -118.510736 312 6025ft 113kts
19-Nov-20 18:39 34.254906 -118.531790 312 6018ft 114kts
19-Nov-20 18:39 34.268847 -118.549079 316 6016ft 114kts
19-Nov-20 18:41 34.287938 -118.573493 312 6016ft 114kts
19-Nov-20 18:41 34.301631 -118.592162 312 5786ft 122kts
19-Nov-20 18:43 34.322450 -118.618840 316 5243ft 127kts
19-Nov-20 18:43 34.337974 -118.637233 315 5020ft 115kts
19-Nov-20 18:45 34.357833 -118.659446 336 4978ft 110kts
19-Nov-20 18:46 34.379092 -118.655829 12 5017ft 109kts
19-Nov-20 18:46 34.396647 -118.650916 14 4989ft 113kts
19-Nov-20 18:47 34.417431 -118.642840 28 5006ft 112kts
19-Nov-20 18:48 34.415792 -118.619281 120 5023ft 110kts
19-Nov-20 18:49 34.402672 -118.597622 125 5009ft 105kts
19-Nov-20 18:50 34.391419 -118.580286 131 4925ft 78kts
19-Nov-20 18:51 34.379332 -118.566488 135 4828ft 84kts
19-Nov-20 18:52 34.367021 -118.551807 134 4716ft 87kts
19-Nov-20 18:53 34.354131 -118.535444 135 4513ft 95kts
19-Nov-20 18:54 34.338946 -118.519293 138 4168ft 102kts
19-Nov-20 18:55 34.325084 -118.503476 133 4138ft 88kts
19-Nov-20 18:56 34.312658 -118.488200 140 4122ft 85kts
19-Nov-20 18:57 34.299759 -118.474411 134 4149ft 84kts
19-Nov-20 18:58 34.286835 -118.458848 136 3890ft 95kts
19-Nov-20 18:59 34.265944 -118.434368 139 2972ft 100kts
19-Nov-20 19:00 34.240689 -118.406207 130 1799ft 83kts
19-Nov-20 19:01 34.222266 -118.384639 150 950ft 65kts
19-Nov-20 19:02 34.220768 -118.366076 73 968ft 78kts
19-Nov-20 19:03 34.207347 -118.359153 169 746ft 38kts
19-Nov-20 19:04 34.203254 -118.358019 179 731ft 9kts
19-Nov-20 19:05 34.202782 -118.358820 255 731ft 0kts
19-Nov-20 19:06 34.202539 -118.358922 164 730ft 8kts
19-Nov-20 19:07 34.199558 -118.358295 237 717ft 2kts
19-Nov-20 19:08 34.199950 -118.359410 337 721ft 0kts

Navigation Log

Ident Type
Flight plan parsing failed, navigation log unavailable